createdAt,value
2022-08-28T00:37:24.620Z,18.50
2022-08-28T00:52:25.867Z,18.70
2022-08-28T00:57:28.135Z,18.50
2022-08-28T01:02:23.549Z,18.30
2022-08-28T01:17:24.722Z,18.20
2022-08-28T01:22:31.762Z,18.30
2022-08-28T01:27:24.004Z,18.20
2022-08-28T01:32:34.871Z,18.10
2022-08-28T01:37:24.066Z,17.90
2022-08-28T02:12:24.151Z,17.80
2022-08-28T02:22:23.698Z,17.60
2022-08-28T02:27:23.867Z,17.40
2022-08-28T02:47:23.822Z,17.30
2022-08-28T02:52:23.775Z,17.50
2022-08-28T02:57:24.612Z,17.30
2022-08-28T03:02:24.934Z,17.10
2022-08-28T03:22:34.074Z,17.00
2022-08-28T03:27:23.776Z,17.10
2022-08-28T03:37:23.900Z,17.00
2022-08-28T03:42:23.883Z,16.90
2022-08-28T03:57:24.307Z,16.80
2022-08-28T04:02:23.947Z,16.70
2022-08-28T04:07:23.935Z,16.90
2022-08-28T04:12:24.655Z,16.80
2022-08-28T04:22:23.981Z,16.70
2022-08-28T04:27:23.935Z,16.80
2022-08-28T04:32:23.990Z,16.60
2022-08-28T04:42:24.774Z,16.70
2022-08-28T04:57:24.076Z,16.80
2022-08-28T05:02:24.170Z,16.90
2022-08-28T05:12:24.248Z,17.10
2022-08-28T05:27:24.634Z,17.20
2022-08-28T05:32:24.085Z,17.30
2022-08-28T05:42:30.988Z,17.40
2022-08-28T05:52:24.341Z,17.60
2022-08-28T06:02:25.643Z,17.70
2022-08-28T06:07:24.318Z,18.00
2022-08-28T06:12:24.222Z,18.10
2022-08-28T06:17:25.007Z,18.40
2022-08-28T06:22:24.239Z,18.60
2022-08-28T06:27:24.315Z,18.70
2022-08-28T06:32:24.354Z,18.80
2022-08-28T06:37:24.328Z,19.00
2022-08-28T06:47:24.435Z,19.10
2022-08-28T06:52:24.384Z,19.20
2022-08-28T06:57:25.153Z,19.30
2022-08-28T07:02:24.393Z,19.40
2022-08-28T07:07:31.493Z,19.50
2022-08-28T07:12:24.413Z,19.60
2022-08-28T07:17:24.637Z,19.70
2022-08-28T07:27:24.511Z,19.60
2022-08-28T07:47:29.453Z,19.70
2022-08-28T07:57:24.581Z,19.80
2022-08-28T08:07:24.529Z,19.90
2022-08-28T08:17:24.705Z,20.00
2022-08-28T08:27:24.634Z,20.10
2022-08-28T08:32:24.824Z,20.20
2022-08-28T08:37:24.635Z,20.40
2022-08-28T08:42:30.824Z,20.50
2022-08-28T08:47:26.655Z,20.70
2022-08-28T08:57:25.048Z,20.80
2022-08-28T09:02:31.560Z,21.00
2022-08-28T09:07:33.100Z,21.30
2022-08-28T09:12:27.927Z,21.60
2022-08-28T09:17:31.176Z,21.70
2022-08-28T09:22:24.732Z,21.90
2022-08-28T09:27:30.612Z,22.10
2022-08-28T09:32:29.826Z,22.40
2022-08-28T09:37:26.465Z,22.90
2022-08-28T09:42:34.713Z,23.10
2022-08-28T09:47:36.310Z,23.40
2022-08-28T09:52:25.647Z,23.50
2022-08-28T10:12:24.875Z,23.70
2022-08-28T10:17:40.565Z,23.60
2022-08-28T10:22:40.590Z,23.40
2022-08-28T10:27:42.278Z,23.60
2022-08-28T10:32:34.884Z,26.50
2022-08-28T10:37:40.652Z,28.40
2022-08-28T10:42:36.059Z,27.00
2022-08-28T10:47:28.478Z,26.50
2022-08-28T10:52:31.328Z,25.90
2022-08-28T10:57:40.170Z,25.20
2022-08-28T11:02:26.578Z,26.20
2022-08-28T11:07:37.679Z,28.80
2022-08-28T11:12:28.416Z,30.80
2022-08-28T11:17:26.597Z,28.70
2022-08-28T11:22:27.987Z,29.20
2022-08-28T11:27:32.294Z,34.00
2022-08-28T11:32:34.101Z,32.40
2022-08-28T11:37:36.799Z,30.00
2022-08-28T11:42:34.496Z,28.20
2022-08-28T11:47:37.460Z,30.20
2022-08-28T11:52:40.094Z,35.10
2022-08-28T11:57:45.130Z,38.10
2022-08-28T12:02:38.497Z,38.20
2022-08-28T12:07:33.386Z,35.70
2022-08-28T12:12:45.075Z,33.40
2022-08-28T12:17:36.905Z,31.80
2022-08-28T12:22:42.796Z,30.50
2022-08-28T12:27:26.783Z,29.70
2022-08-28T12:32:36.347Z,28.70
2022-08-28T12:37:51.427Z,27.90
2022-08-28T12:42:31.429Z,27.40
2022-08-28T12:52:26.080Z,27.50
2022-08-28T12:57:25.358Z,27.20
2022-08-28T13:02:30.710Z,26.70
2022-08-28T13:07:33.106Z,26.50
2022-08-28T13:12:54.500Z,26.10
2022-08-28T13:17:45.336Z,26.20
2022-08-28T13:22:38.161Z,26.10
2022-08-28T13:32:26.186Z,26.50
2022-08-28T13:37:40.153Z,27.00
2022-08-28T13:42:25.466Z,27.10
2022-08-28T13:52:25.604Z,26.90
2022-08-28T13:57:26.540Z,26.80
2022-08-28T14:02:36.047Z,26.90
2022-08-28T14:07:25.538Z,27.00
2022-08-28T14:17:25.610Z,26.80
2022-08-28T14:22:26.358Z,26.50
2022-08-28T14:27:25.618Z,26.70
2022-08-28T14:32:25.772Z,26.60
2022-08-28T14:37:25.896Z,26.80
2022-08-28T14:47:25.703Z,27.00
2022-08-28T14:52:25.698Z,26.90
2022-08-28T14:57:25.742Z,26.60
2022-08-28T15:02:25.749Z,26.40
2022-08-28T15:07:28.483Z,26.10
2022-08-28T15:17:34.584Z,26.40
2022-08-28T15:22:27.285Z,26.30
2022-08-28T15:27:25.801Z,26.20
2022-08-28T15:32:26.356Z,26.00
2022-08-28T15:42:25.869Z,25.80
2022-08-28T15:47:26.050Z,25.70
2022-08-28T15:52:26.586Z,25.60
2022-08-28T15:57:25.887Z,25.70
2022-08-28T16:02:26.005Z,25.60
2022-08-28T16:07:25.951Z,25.50
2022-08-28T16:17:26.030Z,25.40
2022-08-28T16:27:25.945Z,25.50
2022-08-28T16:37:26.153Z,25.80
2022-08-28T16:42:29.688Z,25.60
2022-08-28T16:52:26.407Z,25.30
2022-08-28T17:02:27.057Z,25.10
2022-08-28T17:07:26.737Z,24.70
2022-08-28T17:12:26.126Z,24.40
2022-08-28T17:17:26.151Z,24.30
2022-08-28T17:27:26.960Z,24.10
2022-08-28T17:32:27.680Z,24.00
2022-08-28T17:37:26.309Z,23.90
2022-08-28T17:42:26.156Z,23.70
2022-08-28T17:47:27.461Z,23.80
2022-08-28T17:57:29.427Z,23.60
2022-08-28T18:02:27.199Z,23.50
2022-08-28T18:07:26.281Z,23.40
2022-08-28T18:12:26.934Z,23.20
2022-08-28T18:17:27.183Z,23.40
2022-08-28T18:22:29.842Z,23.20
2022-08-28T18:32:26.401Z,23.10
2022-08-28T18:42:26.334Z,23.00
2022-08-28T18:47:26.407Z,22.90
2022-08-28T18:57:26.436Z,22.70
2022-08-28T19:07:26.603Z,22.60
2022-08-28T19:17:27.030Z,22.50
2022-08-28T19:22:26.591Z,22.40
2022-08-28T19:27:26.378Z,22.50
2022-08-28T19:32:27.255Z,22.30
2022-08-28T19:52:26.681Z,22.20
2022-08-28T19:57:26.577Z,22.10
2022-08-28T20:12:26.668Z,21.90
2022-08-28T20:17:26.586Z,22.00
2022-08-28T20:22:27.121Z,21.90
2022-08-28T20:32:27.011Z,21.80
2022-08-28T20:42:31.775Z,21.60
2022-08-28T20:47:27.486Z,21.70
2022-08-28T20:52:26.668Z,21.60
2022-08-28T21:07:27.112Z,21.50
2022-08-28T21:22:27.997Z,21.30
2022-08-28T21:42:27.409Z,21.10
2022-08-28T21:47:27.207Z,21.20
2022-08-28T21:52:29.601Z,21.10
2022-08-28T22:02:27.188Z,21.00
2022-08-28T22:07:27.014Z,20.90
2022-08-28T22:12:26.849Z,20.70
2022-08-28T22:17:28.555Z,20.60
2022-08-28T22:22:36.885Z,20.50
2022-08-28T22:27:26.951Z,20.40
2022-08-28T22:32:27.051Z,20.30
2022-08-28T22:37:26.979Z,20.40
2022-08-28T22:47:27.470Z,20.30
2022-08-28T22:52:26.939Z,20.20
2022-08-28T23:02:27.750Z,20.00
2022-08-28T23:07:27.051Z,19.80
2022-08-28T23:12:27.708Z,19.50
2022-08-28T23:17:27.810Z,19.60
2022-08-28T23:22:27.065Z,19.50
2022-08-28T23:32:27.106Z,19.20
2022-08-28T23:37:27.116Z,19.00
2022-08-28T23:42:27.150Z,19.10
2022-08-28T23:47:27.262Z,19.30
2022-08-28T23:52:27.125Z,18.90
2022-08-28T23:57:27.869Z,18.80
